<?xml version="1.0" encoding="UTF-8" standalone="no" ?>
<gpx xmlns="http://www.topografix.com/GPX/1/1" xmlns:xsi="http://www.w3.org/2001/XMLSchema-instance" xsi:schemaLocation="http://www.topografix.com/GPX/1/1 http://www.topografix.com/GPX/1/1/gpx.xsd" version="1.1" creator="VisuGPX - https://www.visugpx.com">
  <metadata>
    <name>11577962-ferrieres sur sichon</name>
    <desc><![CDATA[Circuit non balisé à faire avec la carte en main ou GPS.]]></desc>
  </metadata>
  <trk>
    <name><![CDATA[11577962-ferrieres]]></name>
    <trkseg>
      <trkpt lat="46.02438" lon="3.64767">
        <ele>544</ele>
        <time>2022-02-21T06:46:10Z</time>
      </trkpt>
      <trkpt lat="46.02327" lon="3.64875">
        <ele>551</ele>
        <time>2022-02-21T06:49:09Z</time>
      </trkpt>
      <trkpt lat="46.02299" lon="3.64848">
        <ele>554</ele>
        <time>2022-02-21T06:49:54Z</time>
      </trkpt>
      <trkpt lat="46.02105" lon="3.65091">
        <ele>577</ele>
        <time>2022-02-21T06:55:37Z</time>
      </trkpt>
      <trkpt lat="46.01907" lon="3.65139">
        <ele>607</ele>
        <time>2022-02-21T07:00:05Z</time>
      </trkpt>
      <trkpt lat="46.01838" lon="3.65266">
        <ele>614</ele>
        <time>2022-02-21T07:02:34Z</time>
      </trkpt>
      <trkpt lat="46.01688" lon="3.65376">
        <ele>636</ele>
        <time>2022-02-21T07:06:19Z</time>
      </trkpt>
      <trkpt lat="46.01508" lon="3.65434">
        <ele>632</ele>
        <time>2022-02-21T07:10:25Z</time>
      </trkpt>
      <trkpt lat="46.01502" lon="3.65649">
        <ele>636</ele>
        <time>2022-02-21T07:13:44Z</time>
      </trkpt>
      <trkpt lat="46.01469" lon="3.65763">
        <ele>635</ele>
        <time>2022-02-21T07:15:39Z</time>
      </trkpt>
      <trkpt lat="46.01376" lon="3.65837">
        <ele>639</ele>
        <time>2022-02-21T07:18:01Z</time>
      </trkpt>
      <trkpt lat="46.01271" lon="3.65947">
        <ele>630</ele>
        <time>2022-02-21T07:20:54Z</time>
      </trkpt>
      <trkpt lat="46.01168" lon="3.65934">
        <ele>630</ele>
        <time>2022-02-21T07:23:12Z</time>
      </trkpt>
      <trkpt lat="46.01266" lon="3.66098">
        <ele>632</ele>
        <time>2022-02-21T07:26:32Z</time>
      </trkpt>
      <trkpt lat="46.01388" lon="3.66408">
        <ele>648</ele>
        <time>2022-02-21T07:32:03Z</time>
      </trkpt>
      <trkpt lat="46.01325" lon="3.66529">
        <ele>649</ele>
        <time>2022-02-21T07:34:23Z</time>
      </trkpt>
      <trkpt lat="46.01216" lon="3.66626">
        <ele>650</ele>
        <time>2022-02-21T07:37:14Z</time>
      </trkpt>
      <trkpt lat="46.0117" lon="3.66657">
        <ele>653</ele>
        <time>2022-02-21T07:38:22Z</time>
      </trkpt>
      <trkpt lat="46.01157" lon="3.66735">
        <ele>647</ele>
        <time>2022-02-21T07:39:36Z</time>
      </trkpt>
      <trkpt lat="46.01081" lon="3.66918">
        <ele>657</ele>
        <time>2022-02-21T07:42:54Z</time>
      </trkpt>
      <trkpt lat="46.00948" lon="3.67152">
        <ele>648</ele>
        <time>2022-02-21T07:47:34Z</time>
      </trkpt>
      <trkpt lat="46.00967" lon="3.67348">
        <ele>636</ele>
        <time>2022-02-21T07:50:37Z</time>
      </trkpt>
      <trkpt lat="46.00781" lon="3.66978">
        <ele>671</ele>
        <time>2022-02-21T07:57:41Z</time>
      </trkpt>
      <trkpt lat="46.00676" lon="3.66547">
        <ele>714</ele>
        <time>2022-02-21T08:04:44Z</time>
      </trkpt>
      <trkpt lat="46.00697" lon="3.66329">
        <ele>712</ele>
        <time>2022-02-21T08:08:08Z</time>
      </trkpt>
      <trkpt lat="46.00575" lon="3.66013">
        <ele>728</ele>
        <time>2022-02-21T08:13:43Z</time>
      </trkpt>
      <trkpt lat="46.0041" lon="3.66402">
        <ele>745</ele>
        <time>2022-02-21T08:20:45Z</time>
      </trkpt>
      <trkpt lat="46.00365" lon="3.66496">
        <ele>746</ele>
        <time>2022-02-21T08:22:31Z</time>
      </trkpt>
      <trkpt lat="46.00283" lon="3.66468">
        <ele>749</ele>
        <time>2022-02-21T08:24:24Z</time>
      </trkpt>
      <trkpt lat="46.00124" lon="3.66493">
        <ele>764</ele>
        <time>2022-02-21T08:27:57Z</time>
      </trkpt>
      <trkpt lat="45.99986" lon="3.66424">
        <ele>760</ele>
        <time>2022-02-21T08:31:12Z</time>
      </trkpt>
      <trkpt lat="45.99865" lon="3.6647">
        <ele>761</ele>
        <time>2022-02-21T08:33:59Z</time>
      </trkpt>
      <trkpt lat="45.99936" lon="3.6634">
        <ele>750</ele>
        <time>2022-02-21T08:36:32Z</time>
      </trkpt>
      <trkpt lat="45.99948" lon="3.66251">
        <ele>739</ele>
        <time>2022-02-21T08:37:56Z</time>
      </trkpt>
      <trkpt lat="45.99856" lon="3.66164">
        <ele>728</ele>
        <time>2022-02-21T08:40:23Z</time>
      </trkpt>
      <trkpt lat="45.9983" lon="3.66131">
        <ele>724</ele>
        <time>2022-02-21T08:41:10Z</time>
      </trkpt>
      <trkpt lat="45.99791" lon="3.66016">
        <ele>713</ele>
        <time>2022-02-21T08:43:08Z</time>
      </trkpt>
      <trkpt lat="45.99833" lon="3.66037">
        <ele>717</ele>
        <time>2022-02-21T08:44:08Z</time>
      </trkpt>
      <trkpt lat="45.99925" lon="3.66001">
        <ele>709</ele>
        <time>2022-02-21T08:46:15Z</time>
      </trkpt>
      <trkpt lat="46.00048" lon="3.66074">
        <ele>707</ele>
        <time>2022-02-21T08:49:12Z</time>
      </trkpt>
      <trkpt lat="46.00166" lon="3.66122">
        <ele>706</ele>
        <time>2022-02-21T08:51:56Z</time>
      </trkpt>
      <trkpt lat="46.00292" lon="3.66037">
        <ele>703</ele>
        <time>2022-02-21T08:55:02Z</time>
      </trkpt>
      <trkpt lat="46.0036" lon="3.65868">
        <ele>706</ele>
        <time>2022-02-21T08:58:03Z</time>
      </trkpt>
      <trkpt lat="46.00469" lon="3.65769">
        <ele>714</ele>
        <time>2022-02-21T09:00:55Z</time>
      </trkpt>
      <trkpt lat="46.0055" lon="3.65807">
        <ele>721</ele>
        <time>2022-02-21T09:02:48Z</time>
      </trkpt>
      <trkpt lat="46.00596" lon="3.65607">
        <ele>721</ele>
        <time>2022-02-21T09:06:04Z</time>
      </trkpt>
      <trkpt lat="46.00781" lon="3.65534">
        <ele>714</ele>
        <time>2022-02-21T09:10:20Z</time>
      </trkpt>
      <trkpt lat="46.00904" lon="3.65449">
        <ele>708</ele>
        <time>2022-02-21T09:13:22Z</time>
      </trkpt>
      <trkpt lat="46.01005" lon="3.65327">
        <ele>707</ele>
        <time>2022-02-21T09:16:18Z</time>
      </trkpt>
      <trkpt lat="46.01099" lon="3.65281">
        <ele>700</ele>
        <time>2022-02-21T09:18:30Z</time>
      </trkpt>
      <trkpt lat="46.01169" lon="3.65176">
        <ele>695</ele>
        <time>2022-02-21T09:20:45Z</time>
      </trkpt>
      <trkpt lat="46.01304" lon="3.64994">
        <ele>691</ele>
        <time>2022-02-21T09:24:52Z</time>
      </trkpt>
      <trkpt lat="46.0134" lon="3.64934">
        <ele>692</ele>
        <time>2022-02-21T09:26:05Z</time>
      </trkpt>
      <trkpt lat="46.01397" lon="3.64733">
        <ele>684</ele>
        <time>2022-02-21T09:29:27Z</time>
      </trkpt>
      <trkpt lat="46.01357" lon="3.64584">
        <ele>669</ele>
        <time>2022-02-21T09:31:55Z</time>
      </trkpt>
      <trkpt lat="46.01405" lon="3.64452">
        <ele>663</ele>
        <time>2022-02-21T09:34:13Z</time>
      </trkpt>
      <trkpt lat="46.01506" lon="3.6432">
        <ele>655</ele>
        <time>2022-02-21T09:37:15Z</time>
      </trkpt>
      <trkpt lat="46.01667" lon="3.64304">
        <ele>666</ele>
        <time>2022-02-21T09:40:50Z</time>
      </trkpt>
      <trkpt lat="46.01763" lon="3.64365">
        <ele>662</ele>
        <time>2022-02-21T09:43:10Z</time>
      </trkpt>
      <trkpt lat="46.01845" lon="3.64434">
        <ele>646</ele>
        <time>2022-02-21T09:45:17Z</time>
      </trkpt>
      <trkpt lat="46.01855" lon="3.64638">
        <ele>647</ele>
        <time>2022-02-21T09:48:26Z</time>
      </trkpt>
      <trkpt lat="46.01932" lon="3.64697">
        <ele>616</ele>
        <time>2022-02-21T09:50:23Z</time>
      </trkpt>
      <trkpt lat="46.01957" lon="3.6469">
        <ele>611</ele>
        <time>2022-02-21T09:50:57Z</time>
      </trkpt>
      <trkpt lat="46.02" lon="3.64629">
        <ele>602</ele>
        <time>2022-02-21T09:52:17Z</time>
      </trkpt>
      <trkpt lat="46.02054" lon="3.64599">
        <ele>593</ele>
        <time>2022-02-21T09:53:34Z</time>
      </trkpt>
      <trkpt lat="46.02096" lon="3.64678">
        <ele>586</ele>
        <time>2022-02-21T09:55:07Z</time>
      </trkpt>
      <trkpt lat="46.0216" lon="3.64696">
        <ele>577</ele>
        <time>2022-02-21T09:56:34Z</time>
      </trkpt>
      <trkpt lat="46.02223" lon="3.64763">
        <ele>565</ele>
        <time>2022-02-21T09:58:18Z</time>
      </trkpt>
      <trkpt lat="46.02316" lon="3.64757">
        <ele>549</ele>
        <time>2022-02-21T10:00:22Z</time>
      </trkpt>
      <trkpt lat="46.02434" lon="3.64727">
        <ele>543</ele>
        <time>2022-02-21T10:03:02Z</time>
      </trkpt>
      <trkpt lat="46.02429" lon="3.64688">
        <ele>543</ele>
        <time>2022-02-21T10:03:39Z</time>
      </trkpt>
    </trkseg>
  </trk>
</gpx>